createdAt,value
2022-08-07T00:00:39.847Z,99922.63
2022-08-07T00:03:09.128Z,99928.53
2022-08-07T00:05:37.837Z,99925.22
2022-08-07T00:08:07.837Z,99917.66
2022-08-07T00:10:36.445Z,99913.44
2022-08-07T00:13:23.741Z,99917.69
2022-08-07T00:15:54.765Z,99917.75
2022-08-07T00:18:25.248Z,99907.66
2022-08-07T00:20:54.728Z,99919.56
2022-08-07T00:23:24.768Z,99922.09
2022-08-07T00:26:00.067Z,99922.81
2022-08-07T00:28:34.364Z,99917.66
2022-08-07T00:31:06.133Z,99916.69
2022-08-07T00:33:41.639Z,99922.53
2022-08-07T00:36:10.938Z,99925.91
2022-08-07T00:38:40.247Z,99922.59
2022-08-07T00:41:09.981Z,99921.94
2022-08-07T00:44:01.432Z,99926.22
2022-08-07T00:46:33.191Z,99925.34
2022-08-07T00:49:03.286Z,99931.16
2022-08-07T00:51:58.732Z,99928.53
2022-08-07T00:54:20.564Z,99923.50
2022-08-07T00:56:51.741Z,99929.47
2022-08-07T00:59:35.825Z,99911.91
2022-08-07T01:02:06.221Z,99926.28
2022-08-07T01:04:43.250Z,99917.00
2022-08-07T01:07:13.347Z,99927.88
2022-08-07T01:10:05.125Z,99932.91
2022-08-07T01:12:31.060Z,99929.44
2022-08-07T01:15:04.397Z,99936.19
2022-08-07T01:17:33.573Z,99926.84
2022-08-07T01:20:07.898Z,99917.59
2022-08-07T01:22:47.025Z,99926.78
2022-08-07T01:25:54.398Z,99937.78
2022-08-07T01:28:15.703Z,99928.53
2022-08-07T01:30:45.611Z,99938.72
2022-08-07T01:33:16.593Z,99938.69
2022-08-07T01:35:54.427Z,99933.56
2022-08-07T01:38:35.693Z,99935.25
2022-08-07T01:41:13.165Z,99937.13
2022-08-07T01:43:55.425Z,99944.75
2022-08-07T01:46:23.569Z,99940.56
2022-08-07T01:48:51.620Z,99938.00
2022-08-07T01:52:01.498Z,99944.69
2022-08-07T01:54:33.146Z,99936.19
2022-08-07T01:57:08.989Z,99941.38
2022-08-07T01:59:56.951Z,99937.22
2022-08-07T02:03:11.416Z,99935.53
2022-08-07T02:05:43.147Z,99931.25
2022-08-07T02:08:23.858Z,99939.63
2022-08-07T02:10:59.313Z,99929.47
2022-08-07T02:13:58.311Z,99930.25
2022-08-07T02:16:29.951Z,99942.94
2022-08-07T02:19:05.794Z,99942.09
2022-08-07T02:21:55.831Z,99939.53
2022-08-07T02:24:26.328Z,99936.97
2022-08-07T02:27:02.565Z,99935.44
2022-08-07T02:29:34.374Z,99932.19
2022-08-07T02:32:06.522Z,99937.28
2022-08-07T02:34:48.961Z,99934.69
2022-08-07T02:37:23.035Z,99938.06
2022-08-07T02:40:29.574Z,99939.84
2022-08-07T02:42:47.493Z,99945.88
2022-08-07T02:45:59.354Z,99947.56
2022-08-07T02:48:10.185Z,99937.41
2022-08-07T02:50:49.339Z,99934.88
2022-08-07T02:53:27.570Z,99920.59
2022-08-07T02:56:03.127Z,99934.91
2022-08-07T02:58:39.683Z,99934.03
2022-08-07T03:01:18.998Z,99923.91
2022-08-07T03:04:12.683Z,99928.22
2022-08-07T03:06:45.943Z,99918.94
2022-08-07T03:09:42.417Z,99923.97
2022-08-07T03:12:11.539Z,99916.31
2022-08-07T03:14:56.296Z,99931.50
2022-08-07T03:17:24.890Z,99923.91
2022-08-07T03:19:55.910Z,99928.16
2022-08-07T03:22:30.251Z,99931.53
2022-08-07T03:25:00.867Z,99929.72
2022-08-07T03:27:42.193Z,99928.84
2022-08-07T03:30:26.867Z,99919.50
2022-08-07T03:33:00.859Z,99911.81
2022-08-07T03:35:44.017Z,99917.72
2022-08-07T03:38:20.918Z,99905.97
2022-08-07T03:40:53.930Z,99913.63
2022-08-07T03:43:26.783Z,99918.69
2022-08-07T03:46:10.327Z,99917.84
2022-08-07T03:49:03.145Z,99922.94
2022-08-07T03:51:47.211Z,99910.28
2022-08-07T03:54:35.473Z,99918.75
2022-08-07T03:57:08.456Z,99921.31
2022-08-07T03:59:46.675Z,99920.44
2022-08-07T04:02:29.536Z,99924.63
2022-08-07T04:04:58.408Z,99920.38
2022-08-07T04:07:41.777Z,99917.78
2022-08-07T04:10:19.797Z,99926.97
2022-08-07T04:12:51.043Z,99917.56
2022-08-07T04:15:20.243Z,99924.22
2022-08-07T04:18:57.970Z,99927.56
2022-08-07T04:20:54.527Z,99938.53
2022-08-07T04:23:24.028Z,99922.34
2022-08-07T04:26:11.203Z,99931.63
2022-08-07T04:28:42.251Z,99947.59
2022-08-07T04:31:20.031Z,99952.66
2022-08-07T04:33:55.152Z,99950.06
2022-08-07T04:36:26.467Z,99948.34
2022-08-07T04:38:55.620Z,99951.75
2022-08-07T04:41:26.797Z,99955.09
2022-08-07T04:44:12.083Z,99950.03
2022-08-07T04:47:04.269Z,99949.94
2022-08-07T04:49:57.534Z,99958.34
2022-08-07T04:52:35.288Z,99956.59
2022-08-07T04:55:14.922Z,99959.03
2022-08-07T04:58:33.718Z,99963.16
2022-08-07T05:01:03.722Z,99964.75
2022-08-07T05:04:06.975Z,99967.97
2022-08-07T05:06:51.219Z,99952.69
2022-08-07T05:09:46.250Z,99966.16
2022-08-07T05:12:30.441Z,99969.50
2022-08-07T05:15:21.705Z,99961.78
2022-08-07T05:18:00.834Z,99976.09
2022-08-07T05:20:35.891Z,99972.53
2022-08-07T05:23:15.602Z,99970.72
2022-08-07T05:26:13.307Z,99972.34
2022-08-07T05:28:36.481Z,99967.16
2022-08-07T05:31:12.698Z,99975.47
2022-08-07T05:33:51.327Z,99980.31
2022-08-07T05:36:32.425Z,99978.44
2022-08-07T05:40:04.973Z,99983.50
2022-08-07T05:42:05.307Z,99986.09
2022-08-07T05:44:41.445Z,99985.34
2022-08-07T05:47:17.797Z,99986.25
2022-08-07T05:49:49.372Z,99981.03
2022-08-07T05:52:20.099Z,99985.19
2022-08-07T05:54:55.855Z,99981.09
2022-08-07T05:57:30.210Z,99977.72
2022-08-07T06:00:03.744Z,99996.50
2022-08-07T06:02:41.777Z,99992.25
2022-08-07T06:05:16.341Z,99990.44
2022-08-07T06:08:14.682Z,99993.84
2022-08-07T06:10:42.710Z,99986.28
2022-08-07T06:13:13.654Z,99995.69
2022-08-07T06:15:45.439Z,99994.97
2022-08-07T06:18:22.772Z,99996.53
2022-08-07T06:22:15.471Z,99987.06
2022-08-07T06:24:37.009Z,99999.81
2022-08-07T06:26:34.953Z,99993.72
2022-08-07T06:29:04.143Z,99997.03
2022-08-07T06:31:46.516Z,100004.63
2022-08-07T06:34:19.598Z,100012.22
2022-08-07T06:36:51.985Z,100002.06
2022-08-07T06:40:17.324Z,100009.53
2022-08-07T06:42:19.205Z,100008.88
2022-08-07T06:45:11.505Z,100015.47
2022-08-07T06:47:57.412Z,99995.13
2022-08-07T06:50:30.628Z,100015.22
2022-08-07T06:53:04.079Z,100012.63
2022-08-07T06:55:53.387Z,100020.53
2022-08-07T06:58:28.831Z,100019.06
2022-08-07T07:01:09.871Z,100010.56
2022-08-07T07:03:49.331Z,100012.44
2022-08-07T07:06:26.139Z,100020.19
2022-08-07T07:08:56.840Z,100013.22
2022-08-07T07:12:08.644Z,100009.00
2022-08-07T07:14:17.766Z,100015.00
2022-08-07T07:16:51.188Z,100008.22
2022-08-07T07:19:56.100Z,100003.00
2022-08-07T07:22:34.191Z,100009.63
2022-08-07T07:26:33.481Z,100009.75
2022-08-07T07:28:03.198Z,100003.94
2022-08-07T07:30:40.311Z,100004.75
2022-08-07T07:33:12.278Z,100011.53
2022-08-07T07:36:05.082Z,100010.69
2022-08-07T07:38:36.035Z,100012.44
2022-08-07T07:41:08.842Z,100009.03
2022-08-07T07:44:14.637Z,100012.38
2022-08-07T07:46:40.388Z,100005.34
2022-08-07T07:50:35.902Z,100003.63
2022-08-07T07:52:12.769Z,99999.13
2022-08-07T07:54:50.707Z,99997.38
2022-08-07T07:57:51.901Z,100011.94
2022-08-07T08:00:12.192Z,100003.41
2022-08-07T08:03:05.303Z,100002.41
2022-08-07T08:05:51.121Z,100008.00
2022-08-07T08:08:32.327Z,100010.44
2022-08-07T08:11:05.377Z,100006.03
2022-08-07T08:13:52.714Z,100006.66
2022-08-07T08:16:29.986Z,100006.72
2022-08-07T08:19:09.722Z,100014.38
2022-08-07T08:22:07.867Z,100016.00
2022-08-07T08:25:04.399Z,100016.13
2022-08-07T08:27:55.949Z,100011.78
2022-08-07T08:30:27.984Z,100005.75
2022-08-07T08:32:59.921Z,100012.16
2022-08-07T08:35:42.881Z,100011.25
2022-08-07T08:38:17.888Z,100019.69
2022-08-07T08:40:57.793Z,100019.66
2022-08-07T08:43:42.948Z,100013.59
2022-08-07T08:46:30.084Z,100019.47
2022-08-07T08:49:05.102Z,100013.44
2022-08-07T08:52:13.052Z,100020.06
2022-08-07T08:54:48.375Z,100020.78
2022-08-07T08:57:27.039Z,100010.44
2022-08-07T09:00:05.082Z,100020.19
2022-08-07T09:02:41.900Z,100018.31
2022-08-07T09:05:32.328Z,99997.69
2022-08-07T09:08:24.362Z,100013.34
2022-08-07T09:11:14.107Z,100016.59
2022-08-07T09:14:04.661Z,100018.09
2022-08-07T09:16:42.857Z,100016.06
2022-08-07T09:19:44.873Z,100015.75
2022-08-07T09:24:28.823Z,100013.16
2022-08-07T09:25:27.338Z,100006.09
2022-08-07T09:28:05.114Z,100005.25
2022-08-07T09:30:54.551Z,99992.69
2022-08-07T09:33:57.740Z,99992.59
2022-08-07T09:36:35.853Z,99998.13
2022-08-07T09:39:54.626Z,99994.50
2022-08-07T09:42:23.165Z,99989.72
2022-08-07T09:47:49.423Z,99990.28
2022-08-07T09:48:11.722Z,99990.47
2022-08-07T09:50:57.024Z,99996.03
2022-08-07T09:53:40.871Z,99987.22
2022-08-07T09:56:33.860Z,99986.31
2022-08-07T09:59:35.706Z,99977.66
2022-08-07T10:02:31.893Z,99984.53
2022-08-07T10:05:17.276Z,99983.03
2022-08-07T10:08:05.211Z,99965.75
2022-08-07T10:11:59.092Z,99975.38
2022-08-07T10:14:02.098Z,99968.22
2022-08-07T10:16:59.555Z,99965.13
2022-08-07T10:19:43.971Z,99959.41
2022-08-07T10:22:45.357Z,99950.06
2022-08-07T10:25:42.527Z,99965.53
2022-08-07T10:28:43.365Z,99945.25
2022-08-07T10:31:39.357Z,99953.56
2022-08-07T10:34:27.191Z,99954.34
2022-08-07T10:37:48.170Z,99953.81
2022-08-07T10:40:20.735Z,99945.34
2022-08-07T10:42:59.108Z,99944.84
2022-08-07T10:45:57.262Z,99949.81
2022-08-07T10:48:34.896Z,99949.00
2022-08-07T10:51:16.789Z,99938.00
2022-08-07T10:54:07.924Z,99940.63
2022-08-07T10:56:45.208Z,99943.00
2022-08-07T10:59:30.399Z,99937.06
2022-08-07T11:02:12.249Z,99944.75
2022-08-07T11:05:19.008Z,99943.78
2022-08-07T11:08:01.171Z,99942.41
2022-08-07T11:10:39.588Z,99931.00
2022-08-07T11:14:42.074Z,99932.72
2022-08-07T11:16:07.449Z,99914.91
2022-08-07T11:18:40.293Z,99926.97
2022-08-07T11:21:23.227Z,99929.28
2022-08-07T11:23:58.892Z,99928.59
2022-08-07T11:26:34.692Z,99924.34
2022-08-07T11:29:13.209Z,99925.19
2022-08-07T11:32:08.957Z,99920.06
2022-08-07T11:34:48.670Z,99916.50
2022-08-07T11:37:57.427Z,99910.25
2022-08-07T11:40:34.557Z,99912.59
2022-08-07T11:43:15.374Z,99906.22
2022-08-07T11:46:03.116Z,99908.38
2022-08-07T11:49:51.579Z,99917.78
2022-08-07T11:52:14.436Z,99898.56
2022-08-07T11:55:00.154Z,99897.41
2022-08-07T11:57:59.886Z,99904.41
2022-08-07T12:00:35.257Z,99897.50
2022-08-07T12:03:42.217Z,99898.22
2022-08-07T12:06:50.901Z,99894.88
2022-08-07T12:09:27.208Z,99899.78
2022-08-07T12:12:10.592Z,99895.56
2022-08-07T12:14:53.781Z,99889.84
2022-08-07T12:17:33.804Z,99887.88
2022-08-07T12:20:18.583Z,99891.13
2022-08-07T12:23:17.996Z,99882.28
2022-08-07T12:26:28.651Z,99886.13
2022-08-07T12:29:08.658Z,99880.03
2022-08-07T12:31:53.138Z,99883.03
2022-08-07T12:34:34.279Z,99883.50
2022-08-07T12:37:08.761Z,99878.06
2022-08-07T12:39:50.973Z,99885.84
2022-08-07T12:42:27.763Z,99874.19
2022-08-07T12:45:04.465Z,99869.81
2022-08-07T12:47:44.080Z,99868.66
2022-08-07T12:50:38.993Z,99874.47
2022-08-07T12:53:17.724Z,99863.59
2022-08-07T12:56:02.750Z,99849.25
2022-08-07T12:58:39.545Z,99841.72
2022-08-07T13:01:20.541Z,99846.69
2022-08-07T13:04:04.875Z,99858.50
2022-08-07T13:07:04.292Z,99859.06
2022-08-07T13:10:21.994Z,99859.47
2022-08-07T13:12:51.621Z,99862.03
2022-08-07T13:15:29.533Z,99850.06
2022-08-07T13:18:26.408Z,99843.00
2022-08-07T13:21:00.834Z,99838.72
2022-08-07T13:24:01.195Z,99843.75
2022-08-07T13:26:34.667Z,99829.81
2022-08-07T13:29:15.328Z,99854.91
2022-08-07T13:31:57.672Z,99835.97
2022-08-07T13:34:39.308Z,99831.25
2022-08-07T13:37:22.972Z,99830.66
2022-08-07T13:40:35.645Z,99829.19
2022-08-07T13:42:53.629Z,99831.22
2022-08-07T13:46:12.897Z,99830.56
2022-08-07T13:48:27.867Z,99824.69
2022-08-07T13:51:20.500Z,99827.44
2022-08-07T13:54:00.874Z,99815.63
2022-08-07T13:56:36.170Z,99810.22
2022-08-07T13:59:13.168Z,99801.66
2022-08-07T14:01:51.175Z,99817.00
2022-08-07T14:04:36.380Z,99796.94
2022-08-07T14:07:10.127Z,99802.91
2022-08-07T14:10:01.402Z,99795.78
2022-08-07T14:12:41.778Z,99800.56
2022-08-07T14:15:31.977Z,99803.38
2022-08-07T14:18:15.859Z,99793.19
2022-08-07T14:21:08.344Z,99799.53
2022-08-07T14:24:01.020Z,99794.66
2022-08-07T14:26:40.631Z,99791.38
2022-08-07T14:30:04.985Z,99797.88
2022-08-07T14:32:13.310Z,99791.28
2022-08-07T14:34:47.946Z,99770.69
2022-08-07T14:37:19.307Z,99795.31
2022-08-07T14:40:16.165Z,99788.44
2022-08-07T14:43:55.143Z,99786.38
2022-08-07T14:45:47.172Z,99791.69
2022-08-07T14:48:21.179Z,99793.50
2022-08-07T14:50:53.422Z,99786.56
2022-08-07T14:54:05.764Z,99785.09
2022-08-07T14:56:15.354Z,99790.25
2022-08-07T14:59:02.094Z,99786.75
2022-08-07T15:01:42.880Z,99777.97
2022-08-07T15:04:25.141Z,99777.72
2022-08-07T15:06:53.800Z,99778.91
2022-08-07T15:12:26.211Z,99766.47
2022-08-07T15:15:09.343Z,99768.19
2022-08-07T15:17:57.177Z,99765.63
2022-08-07T15:20:54.611Z,99776.00
2022-08-07T15:25:03.954Z,99769.56
2022-08-07T15:26:21.246Z,99764.34
2022-08-07T15:30:03.719Z,99764.91
2022-08-07T15:32:00.571Z,99769.31
2022-08-07T15:34:36.049Z,99763.75
2022-08-07T15:37:06.906Z,99763.94
2022-08-07T15:42:51.875Z,99763.09
2022-08-07T15:45:55.835Z,99773.31
2022-08-07T15:48:25.939Z,99768.22
2022-08-07T15:51:09.562Z,99760.94
2022-08-07T15:53:52.260Z,99767.50
2022-08-07T15:56:24.088Z,99765.88
2022-08-07T15:58:57.174Z,99762.41
2022-08-07T16:01:38.962Z,99757.47
2022-08-07T16:04:14.748Z,99753.94
2022-08-07T16:06:49.281Z,99751.13
2022-08-07T16:09:23.140Z,99750.13
2022-08-07T16:12:04.097Z,99759.06
2022-08-07T16:14:49.620Z,99749.72
2022-08-07T16:18:01.599Z,99749.81
2022-08-07T16:20:44.181Z,99754.44
2022-08-07T16:23:53.878Z,99756.16
2022-08-07T16:26:59.486Z,99742.44
2022-08-07T16:30:11.407Z,99740.41
2022-08-07T16:32:46.183Z,99740.00
2022-08-07T16:35:56.522Z,99740.38
2022-08-07T16:38:57.422Z,99741.03
2022-08-07T16:41:54.285Z,99741.66
2022-08-07T16:45:15.190Z,99739.34
2022-08-07T16:48:16.227Z,99734.16
2022-08-07T16:51:54.446Z,99734.03
2022-08-07T16:54:19.041Z,99732.38
2022-08-07T16:57:15.543Z,99731.19
2022-08-07T16:59:51.775Z,99727.31
2022-08-07T17:02:52.431Z,99735.44
2022-08-07T17:06:28.652Z,99735.97
2022-08-07T17:09:09.952Z,99736.53
2022-08-07T17:12:01.527Z,99739.53
2022-08-07T17:14:26.224Z,99748.28
2022-08-07T17:16:58.420Z,99740.69
2022-08-07T17:20:02.310Z,99742.00
2022-08-07T17:22:37.835Z,99749.03
2022-08-07T17:25:15.571Z,99761.34
2022-08-07T17:27:56.070Z,99755.78
2022-08-07T17:30:27.827Z,99750.22
2022-08-07T17:34:08.846Z,99746.16
2022-08-07T17:36:03.757Z,99753.31
2022-08-07T17:38:40.663Z,99751.00
2022-08-07T17:42:04.207Z,99759.75
2022-08-07T17:44:34.196Z,99754.78
2022-08-07T17:47:42.220Z,99752.53
2022-08-07T17:50:19.383Z,99757.03
2022-08-07T17:52:55.244Z,99757.19
2022-08-07T17:56:01.359Z,99751.41
2022-08-07T17:58:30.430Z,99757.41
2022-08-07T18:01:20.708Z,99759.25
2022-08-07T18:04:08.068Z,99765.44
2022-08-07T18:06:58.175Z,99762.31
2022-08-07T18:10:04.437Z,99780.38
2022-08-07T18:12:41.584Z,99777.06
2022-08-07T18:15:13.491Z,99787.34
2022-08-07T18:18:46.071Z,99788.34
2022-08-07T18:21:09.696Z,99791.00
2022-08-07T18:23:46.843Z,99789.50
2022-08-07T18:26:26.385Z,99798.03
2022-08-07T18:30:08.444Z,99795.59
2022-08-07T18:32:09.870Z,99795.78
2022-08-07T18:35:01.134Z,99805.38
2022-08-07T18:38:56.988Z,99802.09
2022-08-07T18:40:59.796Z,99808.00
2022-08-07T18:43:58.918Z,99815.81
2022-08-07T18:46:43.017Z,99786.44
2022-08-07T18:50:32.362Z,99806.59
2022-08-07T18:52:53.920Z,99811.63
2022-08-07T18:55:42.043Z,99814.31
2022-08-07T18:58:35.647Z,99809.28
2022-08-07T19:02:19.301Z,99812.91
2022-08-07T19:04:25.061Z,99795.47
2022-08-07T19:07:08.431Z,99820.81
2022-08-07T19:09:56.291Z,99821.00
2022-08-07T19:12:35.622Z,99822.00
2022-08-07T19:16:05.804Z,99822.88
2022-08-07T19:18:34.981Z,99819.63
2022-08-07T19:21:44.137Z,99830.91
2022-08-07T19:24:06.234Z,99839.47
2022-08-07T19:27:16.724Z,99837.75
2022-08-07T19:31:05.679Z,99838.63
2022-08-07T19:32:25.684Z,99842.94
2022-08-07T19:35:02.975Z,99844.66
2022-08-07T19:37:55.111Z,99848.97
2022-08-07T19:40:31.585Z,99846.44
2022-08-07T19:43:09.596Z,99843.13
2022-08-07T19:46:07.131Z,99843.09
2022-08-07T19:48:42.901Z,99849.03
2022-08-07T19:51:19.598Z,99852.56
2022-08-07T19:54:35.148Z,99855.13
2022-08-07T19:57:51.751Z,99853.56
2022-08-07T19:59:40.621Z,99863.84
2022-08-07T20:02:19.649Z,99853.06
2022-08-07T20:05:09.323Z,99853.81
2022-08-07T20:07:47.906Z,99834.34
2022-08-07T20:10:54.646Z,99861.03
2022-08-07T20:13:34.425Z,99862.59
2022-08-07T20:16:15.756Z,99863.44
2022-08-07T20:19:01.747Z,99870.22
2022-08-07T20:22:41.435Z,99865.91
2022-08-07T20:25:25.481Z,99864.09
2022-08-07T20:27:58.381Z,99864.13
2022-08-07T20:30:32.552Z,99863.53
2022-08-07T20:33:02.315Z,99860.34
2022-08-07T20:35:37.077Z,99865.38
2022-08-07T20:38:24.478Z,99862.66
2022-08-07T20:41:01.030Z,99861.69
2022-08-07T20:43:35.102Z,99858.19
2022-08-07T20:46:28.786Z,99848.16
2022-08-07T20:49:54.283Z,99859.72
2022-08-07T20:51:50.193Z,99860.53
2022-08-07T20:54:30.195Z,99863.94
2022-08-07T20:57:08.323Z,99863.09
2022-08-07T21:00:06.283Z,99871.69
2022-08-07T21:02:53.939Z,99879.47
2022-08-07T21:05:42.931Z,99865.22
2022-08-07T21:08:15.482Z,99884.59
2022-08-07T21:10:44.580Z,99894.84
2022-08-07T21:13:24.421Z,99897.47
2022-08-07T21:16:10.157Z,99900.09
2022-08-07T21:18:46.370Z,99900.09
2022-08-07T21:21:21.576Z,99898.44
2022-08-07T21:24:06.141Z,99895.94
2022-08-07T21:26:42.889Z,99903.53
2022-08-07T21:29:18.489Z,99907.00
2022-08-07T21:32:46.795Z,99905.47
2022-08-07T21:34:52.838Z,99913.88
2022-08-07T21:37:57.436Z,99914.66
2022-08-07T21:40:24.152Z,99916.28
2022-08-07T21:43:00.825Z,99908.56
2022-08-07T21:46:09.841Z,99908.53
2022-08-07T21:48:34.449Z,99903.41
2022-08-07T21:51:19.731Z,99899.16
2022-08-07T21:53:55.723Z,99901.72
2022-08-07T21:56:47.231Z,99906.06
2022-08-07T21:59:26.920Z,99898.44
2022-08-07T22:02:10.385Z,99898.50
2022-08-07T22:04:51.055Z,99897.59
2022-08-07T22:07:48.601Z,99907.84
2022-08-07T22:10:15.124Z,99916.47
2022-08-07T22:12:49.698Z,99918.25
2022-08-07T22:16:43.305Z,99914.91
2022-08-07T22:18:17.632Z,99909.09
2022-08-07T22:20:55.841Z,99913.25
2022-08-07T22:23:31.421Z,99924.31
2022-08-07T22:26:06.139Z,99924.38
2022-08-07T22:28:42.514Z,99929.97
2022-08-07T22:31:45.604Z,99926.06
2022-08-07T22:34:29.249Z,99929.44
2022-08-07T22:37:13.040Z,99923.41
2022-08-07T22:39:52.750Z,99918.22
2022-08-07T22:42:26.024Z,99919.06
2022-08-07T22:45:02.307Z,99918.16
2022-08-07T22:47:59.513Z,99916.41
2022-08-07T22:50:43.485Z,99914.66
2022-08-07T22:54:05.453Z,99911.25
2022-08-07T22:56:24.746Z,99903.66
2022-08-07T22:59:24.940Z,99900.38
2022-08-07T23:02:08.439Z,99902.94
2022-08-07T23:06:06.947Z,99900.38
2022-08-07T23:07:59.248Z,99904.53
2022-08-07T23:10:42.543Z,99905.34
2022-08-07T23:13:48.458Z,99905.38
2022-08-07T23:16:54.606Z,99906.50
2022-08-07T23:19:58.577Z,99915.03
2022-08-07T23:22:45.294Z,99905.63
2022-08-07T23:25:28.603Z,99914.97
2022-08-07T23:28:21.410Z,99909.03
2022-08-07T23:31:11.757Z,99913.31
2022-08-07T23:34:34.961Z,99915.16
2022-08-07T23:37:22.454Z,99921.13
2022-08-07T23:40:04.380Z,99919.50
2022-08-07T23:42:54.555Z,99919.63
2022-08-07T23:46:02.806Z,99907.09
2022-08-07T23:48:41.856Z,99911.53
2022-08-07T23:52:58.451Z,99901.47
2022-08-07T23:54:19.444Z,99901.50
2022-08-07T23:57:05.450Z,99900.56
